sensor_id;sensor_type;location;lat;lon;timestamp;P1;durP1;ratioP1;P2;durP2;ratioP2
13832;SDS011;6987;19.472;-99.276;2023-10-13T00:01:09;1.70;;;1.40;;
13832;SDS011;6987;19.472;-99.276;2023-10-13T00:03:39;2.15;;;1.15;;
13832;SDS011;6987;19.472;-99.276;2023-10-13T00:06:08;1.45;;;1.20;;
13832;SDS011;6987;19.472;-99.276;2023-10-13T00:08:39;4.00;;;1.40;;
13832;SDS011;6987;19.472;-99.276;2023-10-13T00:11:11;4.55;;;1.90;;
13832;SDS011;6987;19.472;-99.276;2023-10-13T00:13:41;1.85;;;1.73;;
13832;SDS011;6987;19.472;-99.276;2023-10-13T00:16:16;3.20;;;1.27;;
13832;SDS011;6987;19.472;-99.276;2023-10-13T00:18:47;1.88;;;1.67;;
13832;SDS011;6987;19.472;-99.276;2023-10-13T00:21:20;2.47;;;1.40;;
13832;SDS011;6987;19.472;-99.276;2023-10-13T00:24:00;6.55;;;1.83;;
13832;SDS011;6987;19.472;-99.276;2023-10-13T00:26:32;18.63;;;1.80;;
13832;SDS011;6987;19.472;-99.276;2023-10-13T00:29:02;3.55;;;1.98;;
13832;SDS011;6987;19.472;-99.276;2023-10-13T00:31:42;1.95;;;1.77;;
13832;SDS011;6987;19.472;-99.276;2023-10-13T00:34:14;4.20;;;1.90;;
13832;SDS011;6987;19.472;-99.276;2023-10-13T00:36:45;1.90;;;1.80;;
13832;SDS011;6987;19.472;-99.276;2023-10-13T00:39:37;5.45;;;2.60;;
13832;SDS011;6987;19.472;-99.276;2023-10-13T00:42:09;3.72;;;2.45;;
13832;SDS011;6987;19.472;-99.276;2023-10-13T00:44:45;5.25;;;2.90;;
13832;SDS011;6987;19.472;-99.276;2023-10-13T00:47:14;3.92;;;3.42;;
13832;SDS011;6987;19.472;-99.276;2023-10-13T00:50:03;4.43;;;3.83;;
13832;SDS011;6987;19.472;-99.276;2023-10-13T00:52:36;4.78;;;4.35;;
13832;SDS011;6987;19.472;-99.276;2023-10-13T00:55:09;6.35;;;5.82;;
13832;SDS011;6987;19.472;-99.276;2023-10-13T00:57:41;4.13;;;3.47;;
13832;SDS011;6987;19.472;-99.276;2023-10-13T01:00:09;2.80;;;2.58;;
13832;SDS011;6987;19.472;-99.276;2023-10-13T01:02:45;6.25;;;4.22;;
13832;SDS011;6987;19.472;-99.276;2023-10-13T01:05:21;3.53;;;3.15;;
13832;SDS011;6987;19.472;-99.276;2023-10-13T01:07:52;3.15;;;1.95;;
13832;SDS011;6987;19.472;-99.276;2023-10-13T01:10:22;5.25;;;4.20;;
13832;SDS011;6987;19.472;-99.276;2023-10-13T01:12:54;4.15;;;3.20;;
13832;SDS011;6987;19.472;-99.276;2023-10-13T01:15:22;3.38;;;2.70;;
13832;SDS011;6987;19.472;-99.276;2023-10-13T01:17:57;2.90;;;2.70;;
13832;SDS011;6987;19.472;-99.276;2023-10-13T01:20:37;3.47;;;3.28;;
13832;SDS011;6987;19.472;-99.276;2023-10-13T01:23:12;5.88;;;2.65;;
13832;SDS011;6987;19.472;-99.276;2023-10-13T01:25:44;2.08;;;1.80;;
13832;SDS011;6987;19.472;-99.276;2023-10-13T01:28:14;6.95;;;3.05;;
13832;SDS011;6987;19.472;-99.276;2023-10-13T01:30:42;4.13;;;2.92;;
13832;SDS011;6987;19.472;-99.276;2023-10-13T01:33:15;30.13;;;21.17;;
13832;SDS011;6987;19.472;-99.276;2023-10-13T01:35:52;18.13;;;15.90;;
13832;SDS011;6987;19.472;-99.276;2023-10-13T01:38:24;14.52;;;12.00;;
13832;SDS011;6987;19.472;-99.276;2023-10-13T01:40:54;10.25;;;7.57;;
13832;SDS011;6987;19.472;-99.276;2023-10-13T01:43:25;27.27;;;24.63;;
13832;SDS011;6987;19.472;-99.276;2023-10-13T01:45:53;23.40;;;21.02;;
13832;SDS011;6987;19.472;-99.276;2023-10-13T01:48:22;16.73;;;15.20;;
13832;SDS011;6987;19.472;-99.276;2023-10-13T01:50:50;16.45;;;14.82;;
13832;SDS011;6987;19.472;-99.276;2023-10-13T01:53:21;10.63;;;9.90;;
13832;SDS011;6987;19.472;-99.276;2023-10-13T01:55:54;14.75;;;13.18;;
13832;SDS011;6987;19.472;-99.276;2023-10-13T01:58:25;14.90;;;12.45;;
13832;SDS011;6987;19.472;-99.276;2023-10-13T02:00:55;16.25;;;14.75;;
13832;SDS011;6987;19.472;-99.276;2023-10-13T02:03:23;11.00;;;10.00;;
13832;SDS011;6987;19.472;-99.276;2023-10-13T02:05:55;11.20;;;9.02;;
13832;SDS011;6987;19.472;-99.276;2023-10-13T02:08:32;4.95;;;4.45;;
13832;SDS011;6987;19.472;-99.276;2023-10-13T02:11:05;3.97;;;3.70;;
13832;SDS011;6987;19.472;-99.276;2023-10-13T02:13:33;6.78;;;3.55;;
13832;SDS011;6987;19.472;-99.276;2023-10-13T02:16:08;3.28;;;3.05;;
13832;SDS011;6987;19.472;-99.276;2023-10-13T02:18:37;4.35;;;2.92;;
13832;SDS011;6987;19.472;-99.276;2023-10-13T02:21:09;3.70;;;3.28;;
13832;SDS011;6987;19.472;-99.276;2023-10-13T02:23:41;6.35;;;3.88;;
13832;SDS011;6987;19.472;-99.276;2023-10-13T02:26:11;10.32;;;5.10;;
13832;SDS011;6987;19.472;-99.276;2023-10-13T02:28:41;4.72;;;4.43;;
13832;SDS011;6987;19.472;-99.276;2023-10-13T02:31:16;5.32;;;3.80;;
13832;SDS011;6987;19.472;-99.276;2023-10-13T02:33:49;4.22;;;3.25;;
13832;SDS011;6987;19.472;-99.276;2023-10-13T02:36:19;6.50;;;4.18;;
13832;SDS011;6987;19.472;-99.276;2023-10-13T02:38:50;7.93;;;3.60;;
13832;SDS011;6987;19.472;-99.276;2023-10-13T02:41:23;4.88;;;3.90;;
13832;SDS011;6987;19.472;-99.276;2023-10-13T02:43:51;4.07;;;3.67;;
13832;SDS011;6987;19.472;-99.276;2023-10-13T02:46:22;3.70;;;3.00;;
13832;SDS011;6987;19.472;-99.276;2023-10-13T02:48:54;5.65;;;4.95;;
13832;SDS011;6987;19.472;-99.276;2023-10-13T02:51:27;5.75;;;4.22;;
13832;SDS011;6987;19.472;-99.276;2023-10-13T02:54:03;8.10;;;3.80;;
13832;SDS011;6987;19.472;-99.276;2023-10-13T02:56:36;4.95;;;4.18;;
13832;SDS011;6987;19.472;-99.276;2023-10-13T02:59:13;5.63;;;4.40;;
13832;SDS011;6987;19.472;-99.276;2023-10-13T03:01:45;5.13;;;4.18;;
13832;SDS011;6987;19.472;-99.276;2023-10-13T03:04:14;4.10;;;3.78;;
13832;SDS011;6987;19.472;-99.276;2023-10-13T03:06:51;6.82;;;4.65;;
13832;SDS011;6987;19.472;-99.276;2023-10-13T03:09:21;5.70;;;4.68;;
13832;SDS011;6987;19.472;-99.276;2023-10-13T03:11:50;6.47;;;4.35;;
13832;SDS011;6987;19.472;-99.276;2023-10-13T03:14:18;11.80;;;4.95;;
13832;SDS011;6987;19.472;-99.276;2023-10-13T03:16:58;5.90;;;4.63;;
13832;SDS011;6987;19.472;-99.276;2023-10-13T03:19:31;5.25;;;3.83;;
13832;SDS011;6987;19.472;-99.276;2023-10-13T03:22:04;8.23;;;5.10;;
13832;SDS011;6987;19.472;-99.276;2023-10-13T03:24:39;6.93;;;4.78;;
13832;SDS011;6987;19.472;-99.276;2023-10-13T03:27:11;7.18;;;5.50;;
13832;SDS011;6987;19.472;-99.276;2023-10-13T03:29:42;7.18;;;5.18;;
13832;SDS011;6987;19.472;-99.276;2023-10-13T03:32:14;7.13;;;5.30;;
13832;SDS011;6987;19.472;-99.276;2023-10-13T03:34:44;5.72;;;5.10;;
13832;SDS011;6987;19.472;-99.276;2023-10-13T03:37:32;6.63;;;6.05;;
13832;SDS011;6987;19.472;-99.276;2023-10-13T03:40:07;7.53;;;4.97;;
13832;SDS011;6987;19.472;-99.276;2023-10-13T03:43:00;8.57;;;6.30;;
13832;SDS011;6987;19.472;-99.276;2023-10-13T03:45:32;8.88;;;5.10;;
13832;SDS011;6987;19.472;-99.276;2023-10-13T03:48:05;5.60;;;5.00;;
13832;SDS011;6987;19.472;-99.276;2023-10-13T03:50:54;36.88;;;28.63;;
13832;SDS011;6987;19.472;-99.276;2023-10-13T03:53:32;42.42;;;33.13;;
13832;SDS011;6987;19.472;-99.276;2023-10-13T03:56:05;29.08;;;23.13;;
13832;SDS011;6987;19.472;-99.276;2023-10-13T03:58:38;28.23;;;21.60;;
13832;SDS011;6987;19.472;-99.276;2023-10-13T04:01:11;24.00;;;17.48;;
13832;SDS011;6987;19.472;-99.276;2023-10-13T04:03:42;23.52;;;17.98;;
13832;SDS011;6987;19.472;-99.276;2023-10-13T04:06:29;16.50;;;12.77;;
13832;SDS011;6987;19.472;-99.276;2023-10-13T04:09:25;18.10;;;13.15;;
13832;SDS011;6987;19.472;-99.276;2023-10-13T04:12:13;25.83;;;13.82;;
13832;SDS011;6987;19.472;-99.276;2023-10-13T04:15:08;21.35;;;13.30;;
13832;SDS011;6987;19.472;-99.276;2023-10-13T04:17:48;15.70;;;10.75;;
13832;SDS011;6987;19.472;-99.276;2023-10-13T04:20:16;21.67;;;10.25;;
13832;SDS011;6987;19.472;-99.276;2023-10-13T04:22:58;10.82;;;8.75;;
13832;SDS011;6987;19.472;-99.276;2023-10-13T04:25:53;13.43;;;10.13;;
13832;SDS011;6987;19.472;-99.276;2023-10-13T04:28:49;11.30;;;7.93;;
13832;SDS011;6987;19.472;-99.276;2023-10-13T04:31:22;12.38;;;7.28;;
13832;SDS011;6987;19.472;-99.276;2023-10-13T04:34:07;11.13;;;6.55;;
13832;SDS011;6987;19.472;-99.276;2023-10-13T04:36:44;11.52;;;7.90;;
13832;SDS011;6987;19.472;-99.276;2023-10-13T04:39:21;14.02;;;7.20;;
13832;SDS011;6987;19.472;-99.276;2023-10-13T04:42:01;9.70;;;7.03;;
13832;SDS011;6987;19.472;-99.276;2023-10-13T04:44:41;10.80;;;6.93;;
13832;SDS011;6987;19.472;-99.276;2023-10-13T04:47:14;12.48;;;5.95;;
13832;SDS011;6987;19.472;-99.276;2023-10-13T04:49:47;9.85;;;6.28;;
13832;SDS011;6987;19.472;-99.276;2023-10-13T04:52:20;13.00;;;6.40;;
13832;SDS011;6987;19.472;-99.276;2023-10-13T04:55:08;9.13;;;5.65;;
13832;SDS011;6987;19.472;-99.276;2023-10-13T04:57:43;11.88;;;5.75;;
13832;SDS011;6987;19.472;-99.276;2023-10-13T05:00:17;6.68;;;5.93;;
13832;SDS011;6987;19.472;-99.276;2023-10-13T05:03:03;8.68;;;6.03;;
13832;SDS011;6987;19.472;-99.276;2023-10-13T05:06:17;10.15;;;6.30;;
13832;SDS011;6987;19.472;-99.276;2023-10-13T05:09:03;8.38;;;6.05;;
13832;SDS011;6987;19.472;-99.276;2023-10-13T05:11:49;11.73;;;5.32;;
13832;SDS011;6987;19.472;-99.276;2023-10-13T05:14:34;11.10;;;5.63;;
13832;SDS011;6987;19.472;-99.276;2023-10-13T05:17:22;8.07;;;5.65;;
13832;SDS011;6987;19.472;-99.276;2023-10-13T05:20:08;13.85;;;5.90;;
13832;SDS011;6987;19.472;-99.276;2023-10-13T05:22:54;8.77;;;5.50;;
13832;SDS011;6987;19.472;-99.276;2023-10-13T05:25:40;12.60;;;5.80;;
13832;SDS011;6987;19.472;-99.276;2023-10-13T05:28:25;8.25;;;6.15;;
13832;SDS011;6987;19.472;-99.276;2023-10-13T05:31:11;8.65;;;5.60;;
13832;SDS011;6987;19.472;-99.276;2023-10-13T05:33:58;8.02;;;5.32;;
13832;SDS011;6987;19.472;-99.276;2023-10-13T05:36:44;11.05;;;5.75;;
13832;SDS011;6987;19.472;-99.276;2023-10-13T05:39:29;8.30;;;4.95;;
13832;SDS011;6987;19.472;-99.276;2023-10-13T05:42:15;9.27;;;5.00;;
13832;SDS011;6987;19.472;-99.276;2023-10-13T05:45:00;7.80;;;4.97;;
13832;SDS011;6987;19.472;-99.276;2023-10-13T05:48:12;5.70;;;4.90;;
13832;SDS011;6987;19.472;-99.276;2023-10-13T05:50:50;12.07;;;4.68;;
13832;SDS011;6987;19.472;-99.276;2023-10-13T05:53:52;15.45;;;5.85;;
13832;SDS011;6987;19.472;-99.276;2023-10-13T05:56:37;6.30;;;5.03;;
13832;SDS011;6987;19.472;-99.276;2023-10-13T05:59:23;10.57;;;4.88;;
13832;SDS011;6987;19.472;-99.276;2023-10-13T06:02:08;6.68;;;4.80;;
13832;SDS011;6987;19.472;-99.276;2023-10-13T06:04:56;5.30;;;4.65;;
13832;SDS011;6987;19.472;-99.276;2023-10-13T06:07:42;7.57;;;5.32;;
13832;SDS011;6987;19.472;-99.276;2023-10-13T06:10:28;7.75;;;5.20;;
13832;SDS011;6987;19.472;-99.276;2023-10-13T06:13:14;8.02;;;4.53;;
13832;SDS011;6987;19.472;-99.276;2023-10-13T06:15:59;6.30;;;4.75;;
13832;SDS011;6987;19.472;-99.276;2023-10-13T06:18:49;7.18;;;4.90;;
13832;SDS011;6987;19.472;-99.276;2023-10-13T06:21:36;4.95;;;4.47;;
13832;SDS011;6987;19.472;-99.276;2023-10-13T06:24:22;6.28;;;4.75;;
13832;SDS011;6987;19.472;-99.276;2023-10-13T06:27:08;9.57;;;5.03;;
13832;SDS011;6987;19.472;-99.276;2023-10-13T06:29:54;6.40;;;5.03;;
13832;SDS011;6987;19.472;-99.276;2023-10-13T06:32:23;5.30;;;4.80;;
13832;SDS011;6987;19.472;-99.276;2023-10-13T06:34:53;6.15;;;5.30;;
13832;SDS011;6987;19.472;-99.276;2023-10-13T06:37:25;5.00;;;4.50;;
13832;SDS011;6987;19.472;-99.276;2023-10-13T06:39:56;5.07;;;4.57;;
13832;SDS011;6987;19.472;-99.276;2023-10-13T06:42:32;6.28;;;4.40;;
13832;SDS011;6987;19.472;-99.276;2023-10-13T06:45:06;7.18;;;4.78;;
13832;SDS011;6987;19.472;-99.276;2023-10-13T06:47:37;5.38;;;4.55;;
13832;SDS011;6987;19.472;-99.276;2023-10-13T06:50:08;4.85;;;4.38;;
13832;SDS011;6987;19.472;-99.276;2023-10-13T06:52:44;5.53;;;4.43;;
13832;SDS011;6987;19.472;-99.276;2023-10-13T06:55:14;5.18;;;4.65;;
13832;SDS011;6987;19.472;-99.276;2023-10-13T06:57:49;7.47;;;4.40;;
13832;SDS011;6987;19.472;-99.276;2023-10-13T07:00:18;5.70;;;4.43;;
13832;SDS011;6987;19.472;-99.276;2023-10-13T07:02:54;6.53;;;4.53;;
13832;SDS011;6987;19.472;-99.276;2023-10-13T07:05:33;4.65;;;4.25;;
13832;SDS011;6987;19.472;-99.276;2023-10-13T07:08:06;3.97;;;3.40;;
13832;SDS011;6987;19.472;-99.276;2023-10-13T07:10:47;5.90;;;4.30;;
13832;SDS011;6987;19.472;-99.276;2023-10-13T07:13:17;5.40;;;4.43;;
13832;SDS011;6987;19.472;-99.276;2023-10-13T07:15:47;8.07;;;4.70;;
13832;SDS011;6987;19.472;-99.276;2023-10-13T07:18:17;6.00;;;4.22;;
13832;SDS011;6987;19.472;-99.276;2023-10-13T07:20:49;5.28;;;4.80;;
13832;SDS011;6987;19.472;-99.276;2023-10-13T07:23:25;5.38;;;3.97;;
13832;SDS011;6987;19.472;-99.276;2023-10-13T07:25:56;7.05;;;4.30;;
13832;SDS011;6987;19.472;-99.276;2023-10-13T07:28:28;4.88;;;4.22;;
13832;SDS011;6987;19.472;-99.276;2023-10-13T07:31:01;7.82;;;4.55;;
13832;SDS011;6987;19.472;-99.276;2023-10-13T07:33:40;5.47;;;4.28;;
13832;SDS011;6987;19.472;-99.276;2023-10-13T07:36:10;7.68;;;4.50;;
13832;SDS011;6987;19.472;-99.276;2023-10-13T07:38:45;7.07;;;4.18;;
13832;SDS011;6987;19.472;-99.276;2023-10-13T07:41:18;4.43;;;4.03;;
13832;SDS011;6987;19.472;-99.276;2023-10-13T07:43:47;4.85;;;4.25;;
13832;SDS011;6987;19.472;-99.276;2023-10-13T07:46:17;4.30;;;4.00;;
13832;SDS011;6987;19.472;-99.276;2023-10-13T07:48:55;5.20;;;4.25;;
13832;SDS011;6987;19.472;-99.276;2023-10-13T07:51:36;5.38;;;3.92;;
13832;SDS011;6987;19.472;-99.276;2023-10-13T07:54:12;5.90;;;5.30;;
13832;SDS011;6987;19.472;-99.276;2023-10-13T07:56:47;5.50;;;4.53;;
13832;SDS011;6987;19.472;-99.276;2023-10-13T07:59:16;5.57;;;4.22;;
13832;SDS011;6987;19.472;-99.276;2023-10-13T08:01:48;5.13;;;4.57;;
13832;SDS011;6987;19.472;-99.276;2023-10-13T08:04:38;5.38;;;4.40;;
13832;SDS011;6987;19.472;-99.276;2023-10-13T08:07:07;5.75;;;4.68;;
13832;SDS011;6987;19.472;-99.276;2023-10-13T08:09:44;5.35;;;4.07;;
13832;SDS011;6987;19.472;-99.276;2023-10-13T08:12:17;5.28;;;4.25;;
13832;SDS011;6987;19.472;-99.276;2023-10-13T08:14:48;4.82;;;4.43;;
13832;SDS011;6987;19.472;-99.276;2023-10-13T08:17:37;6.30;;;4.00;;
13832;SDS011;6987;19.472;-99.276;2023-10-13T08:20:10;4.70;;;4.30;;
13832;SDS011;6987;19.472;-99.276;2023-10-13T08:22:42;6.97;;;4.43;;
13832;SDS011;6987;19.472;-99.276;2023-10-13T08:25:15;4.28;;;3.97;;
13832;SDS011;6987;19.472;-99.276;2023-10-13T08:28:11;3.97;;;3.60;;
13832;SDS011;6987;19.472;-99.276;2023-10-13T08:31:02;5.10;;;4.60;;
13832;SDS011;6987;19.472;-99.276;2023-10-13T08:33:47;4.88;;;4.47;;
13832;SDS011;6987;19.472;-99.276;2023-10-13T08:36:17;5.60;;;4.75;;
13832;SDS011;6987;19.472;-99.276;2023-10-13T08:38:54;5.20;;;4.43;;
13832;SDS011;6987;19.472;-99.276;2023-10-13T08:41:43;4.90;;;4.38;;
13832;SDS011;6987;19.472;-99.276;2023-10-13T08:44:36;5.43;;;4.22;;
13832;SDS011;6987;19.472;-99.276;2023-10-13T08:47:09;4.88;;;4.47;;
13832;SDS011;6987;19.472;-99.276;2023-10-13T08:49:43;5.00;;;4.03;;
13832;SDS011;6987;19.472;-99.276;2023-10-13T08:52:16;7.07;;;4.45;;
13832;SDS011;6987;19.472;-99.276;2023-10-13T08:55:11;4.60;;;4.30;;
13832;SDS011;6987;19.472;-99.276;2023-10-13T08:57:56;4.63;;;4.32;;
13832;SDS011;6987;19.472;-99.276;2023-10-13T09:00:39;5.60;;;4.68;;
13832;SDS011;6987;19.472;-99.276;2023-10-13T09:03:37;5.00;;;4.45;;
13832;SDS011;6987;19.472;-99.276;2023-10-13T09:06:09;4.63;;;4.22;;
13832;SDS011;6987;19.472;-99.276;2023-10-13T09:08:45;6.97;;;4.88;;
13832;SDS011;6987;19.472;-99.276;2023-10-13T09:11:27;5.30;;;4.78;;
13832;SDS011;6987;19.472;-99.276;2023-10-13T09:14:16;4.10;;;3.80;;
13832;SDS011;6987;19.472;-99.276;2023-10-13T09:17:01;10.73;;;4.68;;
13832;SDS011;6987;19.472;-99.276;2023-10-13T09:19:59;5.57;;;4.95;;
13832;SDS011;6987;19.472;-99.276;2023-10-13T09:22:49;4.63;;;4.25;;
13832;SDS011;6987;19.472;-99.276;2023-10-13T09:25:33;4.38;;;3.70;;
13832;SDS011;6987;19.472;-99.276;2023-10-13T09:28:11;5.38;;;4.55;;
13832;SDS011;6987;19.472;-99.276;2023-10-13T09:30:46;4.97;;;4.57;;
13832;SDS011;6987;19.472;-99.276;2023-10-13T09:33:19;4.50;;;4.15;;
13832;SDS011;6987;19.472;-99.276;2023-10-13T09:35:55;4.82;;;4.25;;
13832;SDS011;6987;19.472;-99.276;2023-10-13T09:38:25;3.88;;;3.58;;
13832;SDS011;6987;19.472;-99.276;2023-10-13T09:40:53;4.75;;;4.30;;
13832;SDS011;6987;19.472;-99.276;2023-10-13T09:43:27;5.30;;;4.70;;
13832;SDS011;6987;19.472;-99.276;2023-10-13T09:45:58;7.97;;;4.13;;
13832;SDS011;6987;19.472;-99.276;2023-10-13T09:48:32;5.10;;;3.83;;
13832;SDS011;6987;19.472;-99.276;2023-10-13T09:51:02;4.68;;;4.25;;
13832;SDS011;6987;19.472;-99.276;2023-10-13T09:53:34;6.72;;;4.53;;
13832;SDS011;6987;19.472;-99.276;2023-10-13T09:56:06;4.28;;;3.90;;
13832;SDS011;6987;19.472;-99.276;2023-10-13T09:58:48;6.80;;;4.32;;
13832;SDS011;6987;19.472;-99.276;2023-10-13T10:01:22;6.90;;;4.10;;
13832;SDS011;6987;19.472;-99.276;2023-10-13T10:04:08;5.47;;;4.72;;
13832;SDS011;6987;19.472;-99.276;2023-10-13T10:06:51;5.10;;;4.60;;
13832;SDS011;6987;19.472;-99.276;2023-10-13T10:09:25;7.38;;;4.60;;
13832;SDS011;6987;19.472;-99.276;2023-10-13T10:15:03;5.93;;;4.25;;
13832;SDS011;6987;19.472;-99.276;2023-10-13T10:17:41;5.75;;;4.47;;
13832;SDS011;6987;19.472;-99.276;2023-10-13T10:20:12;5.82;;;4.53;;
13832;SDS011;6987;19.472;-99.276;2023-10-13T10:22:58;9.45;;;4.72;;
13832;SDS011;6987;19.472;-99.276;2023-10-13T10:25:31;5.30;;;4.75;;
13832;SDS011;6987;19.472;-99.276;2023-10-13T10:28:04;5.10;;;4.07;;
13832;SDS011;6987;19.472;-99.276;2023-10-13T10:30:35;5.97;;;4.40;;
13832;SDS011;6987;19.472;-99.276;2023-10-13T10:33:09;4.60;;;4.20;;
13832;SDS011;6987;19.472;-99.276;2023-10-13T10:35:41;5.03;;;4.35;;
13832;SDS011;6987;19.472;-99.276;2023-10-13T10:38:12;8.90;;;4.82;;
13832;SDS011;6987;19.472;-99.276;2023-10-13T10:40:59;10.68;;;5.00;;
13832;SDS011;6987;19.472;-99.276;2023-10-13T10:43:35;6.85;;;4.65;;
13832;SDS011;6987;19.472;-99.276;2023-10-13T10:46:12;6.93;;;4.90;;
13832;SDS011;6987;19.472;-99.276;2023-10-13T10:48:44;5.05;;;4.55;;
13832;SDS011;6987;19.472;-99.276;2023-10-13T10:51:14;6.13;;;4.88;;
13832;SDS011;6987;19.472;-99.276;2023-10-13T10:53:47;6.15;;;4.95;;
13832;SDS011;6987;19.472;-99.276;2023-10-13T10:56:17;10.55;;;5.30;;
13832;SDS011;6987;19.472;-99.276;2023-10-13T10:58:53;11.18;;;4.88;;
13832;SDS011;6987;19.472;-99.276;2023-10-13T11:01:22;5.20;;;4.70;;
13832;SDS011;6987;19.472;-99.276;2023-10-13T11:04:01;6.90;;;4.72;;
13832;SDS011;6987;19.472;-99.276;2023-10-13T11:06:45;7.68;;;4.85;;
13832;SDS011;6987;19.472;-99.276;2023-10-13T11:09:15;5.60;;;4.43;;
13832;SDS011;6987;19.472;-99.276;2023-10-13T11:11:57;7.60;;;4.20;;
13832;SDS011;6987;19.472;-99.276;2023-10-13T11:14:41;7.13;;;4.78;;
13832;SDS011;6987;19.472;-99.276;2023-10-13T11:17:18;5.38;;;4.85;;
13832;SDS011;6987;19.472;-99.276;2023-10-13T11:19:53;8.85;;;5.68;;
13832;SDS011;6987;19.472;-99.276;2023-10-13T11:22:22;5.50;;;5.00;;
13832;SDS011;6987;19.472;-99.276;2023-10-13T11:25:02;6.45;;;4.70;;
13832;SDS011;6987;19.472;-99.276;2023-10-13T11:27:37;6.18;;;4.72;;
13832;SDS011;6987;19.472;-99.276;2023-10-13T11:30:20;10.25;;;5.30;;
13832;SDS011;6987;19.472;-99.276;2023-10-13T11:33:01;6.15;;;5.55;;
13832;SDS011;6987;19.472;-99.276;2023-10-13T11:35:33;6.63;;;4.88;;
13832;SDS011;6987;19.472;-99.276;2023-10-13T11:38:19;9.23;;;5.40;;
13832;SDS011;6987;19.472;-99.276;2023-10-13T11:40:53;5.35;;;4.85;;
13832;SDS011;6987;19.472;-99.276;2023-10-13T11:43:43;10.25;;;5.05;;
13832;SDS011;6987;19.472;-99.276;2023-10-13T11:46:28;5.88;;;5.38;;
13832;SDS011;6987;19.472;-99.276;2023-10-13T11:49:19;7.65;;;5.15;;
13832;SDS011;6987;19.472;-99.276;2023-10-13T11:52:04;7.20;;;4.90;;
13832;SDS011;6987;19.472;-99.276;2023-10-13T11:54:45;8.30;;;5.82;;
13832;SDS011;6987;19.472;-99.276;2023-10-13T11:57:15;11.60;;;5.47;;
13832;SDS011;6987;19.472;-99.276;2023-10-13T11:59:47;7.95;;;5.93;;
13832;SDS011;6987;19.472;-99.276;2023-10-13T12:02:45;6.55;;;5.22;;
13832;SDS011;6987;19.472;-99.276;2023-10-13T12:05:31;10.00;;;5.50;;
13832;SDS011;6987;19.472;-99.276;2023-10-13T12:08:17;9.93;;;5.78;;
13832;SDS011;6987;19.472;-99.276;2023-10-13T12:10:58;7.88;;;5.70;;
13832;SDS011;6987;19.472;-99.276;2023-10-13T12:13:47;10.80;;;5.93;;
13832;SDS011;6987;19.472;-99.276;2023-10-13T12:16:17;11.25;;;6.38;;
13832;SDS011;6987;19.472;-99.276;2023-10-13T12:18:47;7.10;;;5.47;;
13832;SDS011;6987;19.472;-99.276;2023-10-13T12:21:19;7.00;;;5.00;;
13832;SDS011;6987;19.472;-99.276;2023-10-13T12:23:50;13.25;;;5.60;;
13832;SDS011;6987;19.472;-99.276;2023-10-13T12:26:21;14.05;;;5.32;;
13832;SDS011;6987;19.472;-99.276;2023-10-13T12:28:58;12.07;;;6.07;;
13832;SDS011;6987;19.472;-99.276;2023-10-13T12:31:32;8.18;;;5.60;;
13832;SDS011;6987;19.472;-99.276;2023-10-13T12:34:04;8.32;;;6.15;;
13832;SDS011;6987;19.472;-99.276;2023-10-13T12:36:40;9.27;;;5.95;;
13832;SDS011;6987;19.472;-99.276;2023-10-13T12:39:20;11.50;;;6.30;;
13832;SDS011;6987;19.472;-99.276;2023-10-13T12:42:06;7.63;;;6.10;;
13832;SDS011;6987;19.472;-99.276;2023-10-13T12:44:52;10.73;;;5.70;;
13832;SDS011;6987;19.472;-99.276;2023-10-13T12:47:37;10.73;;;6.47;;
13832;SDS011;6987;19.472;-99.276;2023-10-13T12:50:23;9.70;;;6.20;;
13832;SDS011;6987;19.472;-99.276;2023-10-13T12:53:09;10.48;;;5.50;;
13832;SDS011;6987;19.472;-99.276;2023-10-13T12:55:41;5.88;;;5.15;;
13832;SDS011;6987;19.472;-99.276;2023-10-13T12:58:11;9.85;;;5.43;;
13832;SDS011;6987;19.472;-99.276;2023-10-13T13:00:41;19.55;;;6.45;;
13832;SDS011;6987;19.472;-99.276;2023-10-13T13:03:14;9.85;;;6.75;;
13832;SDS011;6987;19.472;-99.276;2023-10-13T13:05:44;9.82;;;5.75;;
13832;SDS011;6987;19.472;-99.276;2023-10-13T13:08:14;16.13;;;6.20;;
13832;SDS011;6987;19.472;-99.276;2023-10-13T13:10:49;12.13;;;6.28;;
13832;SDS011;6987;19.472;-99.276;2023-10-13T13:13:19;8.70;;;5.80;;
13832;SDS011;6987;19.472;-99.276;2023-10-13T13:15:52;12.05;;;5.85;;
13832;SDS011;6987;19.472;-99.276;2023-10-13T13:18:22;12.00;;;6.50;;
13832;SDS011;6987;19.472;-99.276;2023-10-13T13:20:51;11.77;;;6.93;;
13832;SDS011;6987;19.472;-99.276;2023-10-13T13:23:20;14.20;;;6.65;;
13832;SDS011;6987;19.472;-99.276;2023-10-13T13:25:53;13.30;;;6.72;;
13832;SDS011;6987;19.472;-99.276;2023-10-13T13:28:24;11.30;;;6.28;;
13832;SDS011;6987;19.472;-99.276;2023-10-13T13:30:54;10.63;;;5.80;;
13832;SDS011;6987;19.472;-99.276;2023-10-13T13:33:23;11.48;;;6.22;;
13832;SDS011;6987;19.472;-99.276;2023-10-13T13:35:58;11.02;;;6.32;;
13832;SDS011;6987;19.472;-99.276;2023-10-13T13:38:30;10.27;;;5.63;;
13832;SDS011;6987;19.472;-99.276;2023-10-13T13:41:01;16.48;;;7.05;;
13832;SDS011;6987;19.472;-99.276;2023-10-13T13:43:35;7.78;;;5.75;;
13832;SDS011;6987;19.472;-99.276;2023-10-13T13:46:16;9.77;;;5.78;;
13832;SDS011;6987;19.472;-99.276;2023-10-13T13:48:50;5.93;;;4.80;;
13832;SDS011;6987;19.472;-99.276;2023-10-13T13:51:24;10.80;;;5.65;;
13832;SDS011;6987;19.472;-99.276;2023-10-13T13:53:57;5.57;;;4.90;;
13832;SDS011;6987;19.472;-99.276;2023-10-13T13:56:29;5.95;;;4.70;;
13832;SDS011;6987;19.472;-99.276;2023-10-13T13:59:04;13.40;;;5.60;;
13832;SDS011;6987;19.472;-99.276;2023-10-13T14:01:35;9.60;;;5.57;;
13832;SDS011;6987;19.472;-99.276;2023-10-13T14:04:06;7.57;;;5.55;;
13832;SDS011;6987;19.472;-99.276;2023-10-13T14:06:35;11.75;;;6.00;;
13832;SDS011;6987;19.472;-99.276;2023-10-13T14:09:05;8.07;;;6.00;;
13832;SDS011;6987;19.472;-99.276;2023-10-13T14:11:44;11.15;;;6.15;;
13832;SDS011;6987;19.472;-99.276;2023-10-13T14:14:29;11.30;;;7.20;;
13832;SDS011;6987;19.472;-99.276;2023-10-13T14:17:01;11.60;;;7.10;;
13832;SDS011;6987;19.472;-99.276;2023-10-13T14:19:32;13.68;;;7.97;;
13832;SDS011;6987;19.472;-99.276;2023-10-13T14:22:06;13.20;;;8.85;;
13832;SDS011;6987;19.472;-99.276;2023-10-13T14:24:37;13.48;;;9.05;;
13832;SDS011;6987;19.472;-99.276;2023-10-13T14:27:15;17.08;;;9.23;;
13832;SDS011;6987;19.472;-99.276;2023-10-13T14:29:46;13.40;;;8.45;;
13832;SDS011;6987;19.472;-99.276;2023-10-13T14:32:19;12.40;;;8.43;;
13832;SDS011;6987;19.472;-99.276;2023-10-13T14:34:50;11.52;;;8.90;;
13832;SDS011;6987;19.472;-99.276;2023-10-13T14:37:22;9.70;;;8.60;;
13832;SDS011;6987;19.472;-99.276;2023-10-13T14:39:56;13.93;;;10.77;;
13832;SDS011;6987;19.472;-99.276;2023-10-13T14:42:28;11.57;;;10.05;;
13832;SDS011;6987;19.472;-99.276;2023-10-13T14:45:01;24.60;;;11.52;;
13832;SDS011;6987;19.472;-99.276;2023-10-13T14:47:37;12.27;;;10.95;;
13832;SDS011;6987;19.472;-99.276;2023-10-13T14:50:07;11.70;;;10.52;;
13832;SDS011;6987;19.472;-99.276;2023-10-13T14:52:43;13.18;;;11.77;;
13832;SDS011;6987;19.472;-99.276;2023-10-13T14:55:12;13.38;;;11.65;;
13832;SDS011;6987;19.472;-99.276;2023-10-13T14:58:05;13.35;;;12.05;;
13832;SDS011;6987;19.472;-99.276;2023-10-13T15:00:38;16.85;;;11.45;;
13832;SDS011;6987;19.472;-99.276;2023-10-13T15:03:11;15.02;;;11.57;;
13832;SDS011;6987;19.472;-99.276;2023-10-13T15:05:40;19.88;;;13.15;;
13832;SDS011;6987;19.472;-99.276;2023-10-13T15:08:10;14.65;;;12.18;;
13832;SDS011;6987;19.472;-99.276;2023-10-13T15:10:44;14.68;;;11.55;;
13832;SDS011;6987;19.472;-99.276;2023-10-13T15:13:15;12.85;;;11.43;;
13832;SDS011;6987;19.472;-99.276;2023-10-13T15:15:44;15.93;;;12.52;;
13832;SDS011;6987;19.472;-99.276;2023-10-13T15:18:13;15.05;;;12.48;;
13832;SDS011;6987;19.472;-99.276;2023-10-13T15:20:43;15.68;;;13.00;;
13832;SDS011;6987;19.472;-99.276;2023-10-13T15:23:12;14.02;;;12.52;;
13832;SDS011;6987;19.472;-99.276;2023-10-13T15:25:48;21.10;;;12.15;;